sensor_id;sensor_type;location;lat;lon;timestamp;P1;durP1;ratioP1;P2;durP2;ratioP2
23123;SDS011;11731;48.592;8.858;2023-06-05T00:01:10;2.40;;;1.93;;
23123;SDS011;11731;48.592;8.858;2023-06-05T00:03:36;3.07;;;1.90;;
23123;SDS011;11731;48.592;8.858;2023-06-05T00:06:04;2.20;;;2.00;;
23123;SDS011;11731;48.592;8.858;2023-06-05T00:08:33;2.67;;;2.00;;
23123;SDS011;11731;48.592;8.858;2023-06-05T00:11:00;2.83;;;2.10;;
23123;SDS011;11731;48.592;8.858;2023-06-05T00:13:39;3.67;;;2.33;;
23123;SDS011;11731;48.592;8.858;2023-06-05T00:16:07;3.67;;;1.70;;
23123;SDS011;11731;48.592;8.858;2023-06-05T00:18:34;2.13;;;1.83;;
23123;SDS011;11731;48.592;8.858;2023-06-05T00:21:01;2.60;;;1.83;;
23123;SDS011;11731;48.592;8.858;2023-06-05T00:23:29;6.87;;;2.00;;
23123;SDS011;11731;48.592;8.858;2023-06-05T00:25:58;2.93;;;1.90;;
23123;SDS011;11731;48.592;8.858;2023-06-05T00:28:25;3.43;;;1.70;;
23123;SDS011;11731;48.592;8.858;2023-06-05T00:31:13;3.10;;;1.87;;
23123;SDS011;11731;48.592;8.858;2023-06-05T00:33:40;6.17;;;1.87;;
23123;SDS011;11731;48.592;8.858;2023-06-05T00:36:07;2.07;;;1.87;;
23123;SDS011;11731;48.592;8.858;2023-06-05T00:38:35;3.90;;;1.80;;
23123;SDS011;11731;48.592;8.858;2023-06-05T00:41:03;2.03;;;1.63;;
23123;SDS011;11731;48.592;8.858;2023-06-05T00:43:30;9.37;;;1.70;;
23123;SDS011;11731;48.592;8.858;2023-06-05T00:45:59;3.17;;;1.73;;
23123;SDS011;11731;48.592;8.858;2023-06-05T00:48:30;2.80;;;1.80;;
23123;SDS011;11731;48.592;8.858;2023-06-05T00:50:58;4.77;;;1.83;;
23123;SDS011;11731;48.592;8.858;2023-06-05T00:53:26;4.47;;;2.00;;
23123;SDS011;11731;48.592;8.858;2023-06-05T00:55:55;3.37;;;1.80;;
23123;SDS011;11731;48.592;8.858;2023-06-05T00:58:22;2.67;;;1.80;;
23123;SDS011;11731;48.592;8.858;2023-06-05T01:00:51;4.00;;;1.93;;
23123;SDS011;11731;48.592;8.858;2023-06-05T01:03:18;2.13;;;1.87;;
23123;SDS011;11731;48.592;8.858;2023-06-05T01:05:49;3.63;;;2.10;;
23123;SDS011;11731;48.592;8.858;2023-06-05T01:08:16;2.13;;;1.80;;
23123;SDS011;11731;48.592;8.858;2023-06-05T01:10:50;3.60;;;1.93;;
23123;SDS011;11731;48.592;8.858;2023-06-05T01:13:23;2.83;;;1.90;;
23123;SDS011;11731;48.592;8.858;2023-06-05T01:15:52;2.17;;;1.90;;
23123;SDS011;11731;48.592;8.858;2023-06-05T01:18:21;4.20;;;2.10;;
23123;SDS011;11731;48.592;8.858;2023-06-05T01:24:10;2.43;;;1.70;;
23123;SDS011;11731;48.592;8.858;2023-06-05T01:26:39;2.37;;;1.87;;
23123;SDS011;11731;48.592;8.858;2023-06-05T01:29:19;2.87;;;2.03;;
23123;SDS011;11731;48.592;8.858;2023-06-05T01:32:11;2.17;;;1.83;;
23123;SDS011;11731;48.592;8.858;2023-06-05T01:34:41;2.90;;;1.73;;
23123;SDS011;11731;48.592;8.858;2023-06-05T01:37:10;2.00;;;1.57;;
23123;SDS011;11731;48.592;8.858;2023-06-05T01:39:41;2.67;;;1.90;;
23123;SDS011;11731;48.592;8.858;2023-06-05T01:42:09;3.17;;;1.70;;
23123;SDS011;11731;48.592;8.858;2023-06-05T01:44:40;1.97;;;1.60;;
23123;SDS011;11731;48.592;8.858;2023-06-05T01:47:08;2.40;;;1.87;;
23123;SDS011;11731;48.592;8.858;2023-06-05T01:49:36;3.77;;;1.80;;
23123;SDS011;11731;48.592;8.858;2023-06-05T01:52:03;2.63;;;2.07;;
23123;SDS011;11731;48.592;8.858;2023-06-05T01:54:30;2.13;;;1.87;;
23123;SDS011;11731;48.592;8.858;2023-06-05T01:57:08;2.37;;;2.10;;
23123;SDS011;11731;48.592;8.858;2023-06-05T01:59:38;3.73;;;1.90;;
23123;SDS011;11731;48.592;8.858;2023-06-05T02:02:19;3.30;;;2.10;;
23123;SDS011;11731;48.592;8.858;2023-06-05T02:04:46;2.40;;;1.77;;
23123;SDS011;11731;48.592;8.858;2023-06-05T02:07:13;2.17;;;1.97;;
23123;SDS011;11731;48.592;8.858;2023-06-05T02:09:40;2.57;;;1.83;;
23123;SDS011;11731;48.592;8.858;2023-06-05T02:12:11;2.40;;;1.73;;
23123;SDS011;11731;48.592;8.858;2023-06-05T02:14:40;2.83;;;1.87;;
23123;SDS011;11731;48.592;8.858;2023-06-05T02:17:09;3.00;;;2.00;;
23123;SDS011;11731;48.592;8.858;2023-06-05T02:22:30;3.40;;;2.23;;
23123;SDS011;11731;48.592;8.858;2023-06-05T02:24:57;2.70;;;2.13;;
23123;SDS011;11731;48.592;8.858;2023-06-05T02:27:45;2.27;;;1.93;;
23123;SDS011;11731;48.592;8.858;2023-06-05T02:30:12;1.93;;;1.70;;
23123;SDS011;11731;48.592;8.858;2023-06-05T02:32:39;2.17;;;1.87;;
23123;SDS011;11731;48.592;8.858;2023-06-05T02:35:08;3.30;;;2.23;;
23123;SDS011;11731;48.592;8.858;2023-06-05T02:37:35;4.87;;;2.10;;
23123;SDS011;11731;48.592;8.858;2023-06-05T02:40:07;2.83;;;2.10;;
23123;SDS011;11731;48.592;8.858;2023-06-05T02:42:35;4.07;;;1.73;;
23123;SDS011;11731;48.592;8.858;2023-06-05T02:45:07;6.23;;;2.63;;
23123;SDS011;11731;48.592;8.858;2023-06-05T02:47:35;2.17;;;1.60;;
23123;SDS011;11731;48.592;8.858;2023-06-05T02:50:02;4.37;;;1.93;;
23123;SDS011;11731;48.592;8.858;2023-06-05T02:52:29;3.83;;;1.90;;
23123;SDS011;11731;48.592;8.858;2023-06-05T02:55:04;2.73;;;1.93;;
23123;SDS011;11731;48.592;8.858;2023-06-05T02:57:47;2.80;;;1.90;;
23123;SDS011;11731;48.592;8.858;2023-06-05T03:03:26;2.40;;;2.00;;
23123;SDS011;11731;48.592;8.858;2023-06-05T03:05:54;3.83;;;2.33;;
23123;SDS011;11731;48.592;8.858;2023-06-05T03:08:27;4.60;;;1.97;;
23123;SDS011;11731;48.592;8.858;2023-06-05T03:10:53;2.80;;;2.20;;
23123;SDS011;11731;48.592;8.858;2023-06-05T03:13:20;2.50;;;2.13;;
23123;SDS011;11731;48.592;8.858;2023-06-05T03:15:56;4.90;;;2.13;;
23123;SDS011;11731;48.592;8.858;2023-06-05T03:18:40;2.00;;;1.73;;
23123;SDS011;11731;48.592;8.858;2023-06-05T03:21:06;3.37;;;2.10;;
23123;SDS011;11731;48.592;8.858;2023-06-05T03:23:35;3.07;;;1.93;;
23123;SDS011;11731;48.592;8.858;2023-06-05T03:26:02;3.13;;;2.07;;
23123;SDS011;11731;48.592;8.858;2023-06-05T03:28:29;4.00;;;2.30;;
23123;SDS011;11731;48.592;8.858;2023-06-05T03:31:01;2.97;;;2.17;;
23123;SDS011;11731;48.592;8.858;2023-06-05T03:33:45;4.00;;;2.10;;
23123;SDS011;11731;48.592;8.858;2023-06-05T03:36:12;5.80;;;2.93;;
23123;SDS011;11731;48.592;8.858;2023-06-05T03:38:42;5.37;;;2.20;;
23123;SDS011;11731;48.592;8.858;2023-06-05T03:41:09;3.30;;;2.20;;
23123;SDS011;11731;48.592;8.858;2023-06-05T03:43:36;3.27;;;2.33;;
23123;SDS011;11731;48.592;8.858;2023-06-05T03:46:05;2.90;;;2.27;;
23123;SDS011;11731;48.592;8.858;2023-06-05T03:48:35;2.90;;;1.97;;
23123;SDS011;11731;48.592;8.858;2023-06-05T03:51:31;4.27;;;2.33;;
23123;SDS011;11731;48.592;8.858;2023-06-05T03:53:59;2.40;;;2.20;;
23123;SDS011;11731;48.592;8.858;2023-06-05T03:56:26;3.10;;;2.07;;
23123;SDS011;11731;48.592;8.858;2023-06-05T03:58:59;2.63;;;2.10;;
23123;SDS011;11731;48.592;8.858;2023-06-05T04:01:34;2.47;;;1.90;;
23123;SDS011;11731;48.592;8.858;2023-06-05T04:04:02;4.17;;;1.90;;
23123;SDS011;11731;48.592;8.858;2023-06-05T04:06:30;2.80;;;1.87;;
23123;SDS011;11731;48.592;8.858;2023-06-05T04:08:58;2.23;;;2.00;;
23123;SDS011;11731;48.592;8.858;2023-06-05T04:11:25;3.13;;;2.17;;
23123;SDS011;11731;48.592;8.858;2023-06-05T04:13:56;2.30;;;2.03;;
23123;SDS011;11731;48.592;8.858;2023-06-05T04:16:23;2.97;;;2.00;;
23123;SDS011;11731;48.592;8.858;2023-06-05T04:18:50;3.63;;;2.23;;
23123;SDS011;11731;48.592;8.858;2023-06-05T04:21:17;2.27;;;1.80;;
23123;SDS011;11731;48.592;8.858;2023-06-05T04:23:45;4.37;;;2.00;;
23123;SDS011;11731;48.592;8.858;2023-06-05T04:26:12;2.93;;;1.83;;
23123;SDS011;11731;48.592;8.858;2023-06-05T04:28:42;3.20;;;1.90;;
23123;SDS011;11731;48.592;8.858;2023-06-05T04:31:09;2.67;;;2.27;;
23123;SDS011;11731;48.592;8.858;2023-06-05T04:33:36;2.97;;;2.23;;
23123;SDS011;11731;48.592;8.858;2023-06-05T04:36:03;2.50;;;1.90;;
23123;SDS011;11731;48.592;8.858;2023-06-05T04:38:30;3.13;;;2.20;;
23123;SDS011;11731;48.592;8.858;2023-06-05T04:40:59;4.67;;;1.90;;
23123;SDS011;11731;48.592;8.858;2023-06-05T04:43:26;3.87;;;1.90;;
23123;SDS011;11731;48.592;8.858;2023-06-05T04:45:52;5.27;;;2.50;;
23123;SDS011;11731;48.592;8.858;2023-06-05T04:48:19;7.97;;;3.40;;
23123;SDS011;11731;48.592;8.858;2023-06-05T04:50:46;3.27;;;1.93;;
23123;SDS011;11731;48.592;8.858;2023-06-05T04:53:13;5.57;;;2.47;;
23123;SDS011;11731;48.592;8.858;2023-06-05T04:55:42;4.90;;;2.10;;
23123;SDS011;11731;48.592;8.858;2023-06-05T04:58:10;3.13;;;2.30;;
23123;SDS011;11731;48.592;8.858;2023-06-05T05:00:37;5.40;;;2.13;;
23123;SDS011;11731;48.592;8.858;2023-06-05T05:03:04;4.23;;;2.07;;
23123;SDS011;11731;48.592;8.858;2023-06-05T05:05:31;4.20;;;2.40;;
23123;SDS011;11731;48.592;8.858;2023-06-05T05:08:00;5.37;;;2.33;;
23123;SDS011;11731;48.592;8.858;2023-06-05T05:10:28;2.40;;;2.20;;
23123;SDS011;11731;48.592;8.858;2023-06-05T05:12:59;4.53;;;2.60;;
23123;SDS011;11731;48.592;8.858;2023-06-05T05:15:28;3.40;;;2.50;;
23123;SDS011;11731;48.592;8.858;2023-06-05T05:18:03;5.40;;;2.20;;
23123;SDS011;11731;48.592;8.858;2023-06-05T05:20:38;2.53;;;2.17;;
23123;SDS011;11731;48.592;8.858;2023-06-05T05:23:09;3.37;;;2.37;;
23123;SDS011;11731;48.592;8.858;2023-06-05T05:25:37;3.10;;;2.23;;
23123;SDS011;11731;48.592;8.858;2023-06-05T05:28:04;3.37;;;2.50;;
23123;SDS011;11731;48.592;8.858;2023-06-05T05:30:35;2.70;;;2.13;;
23123;SDS011;11731;48.592;8.858;2023-06-05T05:33:02;3.00;;;2.20;;
23123;SDS011;11731;48.592;8.858;2023-06-05T05:35:29;3.30;;;2.17;;
23123;SDS011;11731;48.592;8.858;2023-06-05T05:37:56;3.43;;;2.60;;
23123;SDS011;11731;48.592;8.858;2023-06-05T05:40:23;4.60;;;2.43;;
23123;SDS011;11731;48.592;8.858;2023-06-05T05:42:50;4.87;;;2.60;;
23123;SDS011;11731;48.592;8.858;2023-06-05T05:45:16;5.00;;;2.87;;
23123;SDS011;11731;48.592;8.858;2023-06-05T05:47:45;4.67;;;2.27;;
23123;SDS011;11731;48.592;8.858;2023-06-05T05:50:11;5.33;;;2.47;;
23123;SDS011;11731;48.592;8.858;2023-06-05T05:52:38;2.83;;;2.23;;
23123;SDS011;11731;48.592;8.858;2023-06-05T05:55:18;3.53;;;2.20;;
23123;SDS011;11731;48.592;8.858;2023-06-05T05:57:49;4.50;;;2.40;;
23123;SDS011;11731;48.592;8.858;2023-06-05T06:00:16;5.87;;;2.93;;
23123;SDS011;11731;48.592;8.858;2023-06-05T06:02:45;5.77;;;2.90;;
23123;SDS011;11731;48.592;8.858;2023-06-05T06:05:12;4.30;;;2.47;;
23123;SDS011;11731;48.592;8.858;2023-06-05T06:07:40;8.53;;;2.90;;
23123;SDS011;11731;48.592;8.858;2023-06-05T06:10:08;5.13;;;2.50;;
23123;SDS011;11731;48.592;8.858;2023-06-05T06:12:36;7.97;;;2.70;;
23123;SDS011;11731;48.592;8.858;2023-06-05T06:15:04;3.43;;;2.20;;
23123;SDS011;11731;48.592;8.858;2023-06-05T06:17:32;3.90;;;2.60;;
23123;SDS011;11731;48.592;8.858;2023-06-05T06:20:00;5.77;;;2.53;;
23123;SDS011;11731;48.592;8.858;2023-06-05T06:22:42;4.43;;;2.57;;
23123;SDS011;11731;48.592;8.858;2023-06-05T06:25:10;3.63;;;2.50;;
23123;SDS011;11731;48.592;8.858;2023-06-05T06:27:39;6.40;;;2.60;;
23123;SDS011;11731;48.592;8.858;2023-06-05T06:30:06;4.07;;;2.60;;
23123;SDS011;11731;48.592;8.858;2023-06-05T06:32:35;4.13;;;2.70;;
23123;SDS011;11731;48.592;8.858;2023-06-05T06:35:03;4.87;;;2.70;;
23123;SDS011;11731;48.592;8.858;2023-06-05T06:37:33;3.80;;;2.73;;
23123;SDS011;11731;48.592;8.858;2023-06-05T06:40:00;3.37;;;2.57;;
23123;SDS011;11731;48.592;8.858;2023-06-05T06:42:28;2.77;;;2.27;;
23123;SDS011;11731;48.592;8.858;2023-06-05T06:44:55;3.07;;;2.30;;
23123;SDS011;11731;48.592;8.858;2023-06-05T06:47:22;6.63;;;2.80;;
23123;SDS011;11731;48.592;8.858;2023-06-05T06:49:50;4.80;;;2.50;;
23123;SDS011;11731;48.592;8.858;2023-06-05T06:52:18;4.40;;;2.87;;
23123;SDS011;11731;48.592;8.858;2023-06-05T06:54:45;3.07;;;2.40;;
23123;SDS011;11731;48.592;8.858;2023-06-05T06:57:12;3.40;;;2.87;;
23123;SDS011;11731;48.592;8.858;2023-06-05T06:59:39;2.73;;;2.27;;
23123;SDS011;11731;48.592;8.858;2023-06-05T07:02:09;4.10;;;2.70;;
23123;SDS011;11731;48.592;8.858;2023-06-05T07:04:38;4.20;;;2.60;;
23123;SDS011;11731;48.592;8.858;2023-06-05T07:07:07;3.87;;;2.63;;
23123;SDS011;11731;48.592;8.858;2023-06-05T07:09:37;3.80;;;2.57;;
23123;SDS011;11731;48.592;8.858;2023-06-05T07:12:04;3.13;;;2.13;;
23123;SDS011;11731;48.592;8.858;2023-06-05T07:14:32;5.00;;;2.70;;
23123;SDS011;11731;48.592;8.858;2023-06-05T07:16:59;4.20;;;2.40;;
23123;SDS011;11731;48.592;8.858;2023-06-05T07:19:26;4.33;;;3.00;;
23123;SDS011;11731;48.592;8.858;2023-06-05T07:21:54;4.90;;;2.40;;
23123;SDS011;11731;48.592;8.858;2023-06-05T07:24:22;8.60;;;2.50;;
23123;SDS011;11731;48.592;8.858;2023-06-05T07:26:53;4.73;;;2.60;;
23123;SDS011;11731;48.592;8.858;2023-06-05T07:29:20;3.27;;;2.10;;
23123;SDS011;11731;48.592;8.858;2023-06-05T07:31:47;2.73;;;2.43;;
23123;SDS011;11731;48.592;8.858;2023-06-05T07:34:14;4.97;;;2.80;;
23123;SDS011;11731;48.592;8.858;2023-06-05T07:36:41;3.03;;;2.37;;
23123;SDS011;11731;48.592;8.858;2023-06-05T07:39:10;4.60;;;2.70;;
23123;SDS011;11731;48.592;8.858;2023-06-05T07:41:37;3.00;;;2.30;;
23123;SDS011;11731;48.592;8.858;2023-06-05T07:44:07;4.40;;;2.53;;
23123;SDS011;11731;48.592;8.858;2023-06-05T07:46:35;9.10;;;3.07;;
23123;SDS011;11731;48.592;8.858;2023-06-05T07:49:01;5.10;;;2.80;;
23123;SDS011;11731;48.592;8.858;2023-06-05T07:51:28;4.70;;;2.70;;
23123;SDS011;11731;48.592;8.858;2023-06-05T07:54:00;6.40;;;3.00;;
23123;SDS011;11731;48.592;8.858;2023-06-05T07:56:28;4.00;;;2.53;;
23123;SDS011;11731;48.592;8.858;2023-06-05T07:58:56;5.23;;;2.97;;
23123;SDS011;11731;48.592;8.858;2023-06-05T08:01:24;3.27;;;2.77;;
23123;SDS011;11731;48.592;8.858;2023-06-05T08:03:52;3.57;;;2.80;;
23123;SDS011;11731;48.592;8.858;2023-06-05T08:06:19;3.73;;;2.87;;
23123;SDS011;11731;48.592;8.858;2023-06-05T08:08:46;7.07;;;3.40;;
23123;SDS011;11731;48.592;8.858;2023-06-05T08:11:13;6.60;;;3.20;;
23123;SDS011;11731;48.592;8.858;2023-06-05T08:13:40;4.20;;;3.00;;
23123;SDS011;11731;48.592;8.858;2023-06-05T08:16:07;4.33;;;2.83;;
23123;SDS011;11731;48.592;8.858;2023-06-05T08:18:35;5.00;;;3.17;;
23123;SDS011;11731;48.592;8.858;2023-06-05T08:21:02;4.03;;;3.37;;
23123;SDS011;11731;48.592;8.858;2023-06-05T08:23:29;4.80;;;3.00;;
23123;SDS011;11731;48.592;8.858;2023-06-05T08:25:56;4.43;;;3.43;;
23123;SDS011;11731;48.592;8.858;2023-06-05T08:28:23;4.97;;;3.23;;
23123;SDS011;11731;48.592;8.858;2023-06-05T08:30:50;4.37;;;3.10;;
23123;SDS011;11731;48.592;8.858;2023-06-05T08:33:18;3.90;;;3.30;;
23123;SDS011;11731;48.592;8.858;2023-06-05T08:35:46;5.73;;;3.63;;
23123;SDS011;11731;48.592;8.858;2023-06-05T08:38:13;7.37;;;3.57;;
23123;SDS011;11731;48.592;8.858;2023-06-05T08:40:40;4.63;;;3.33;;
23123;SDS011;11731;48.592;8.858;2023-06-05T08:43:12;4.43;;;3.57;;
23123;SDS011;11731;48.592;8.858;2023-06-05T08:45:47;5.57;;;3.57;;
23123;SDS011;11731;48.592;8.858;2023-06-05T08:48:17;6.17;;;3.87;;
23123;SDS011;11731;48.592;8.858;2023-06-05T08:50:47;3.93;;;3.13;;
23123;SDS011;11731;48.592;8.858;2023-06-05T08:53:16;6.13;;;3.93;;
23123;SDS011;11731;48.592;8.858;2023-06-05T08:55:44;4.27;;;3.87;;
23123;SDS011;11731;48.592;8.858;2023-06-05T08:58:12;5.53;;;3.93;;
23123;SDS011;11731;48.592;8.858;2023-06-05T09:00:40;4.97;;;3.63;;
23123;SDS011;11731;48.592;8.858;2023-06-05T09:03:10;7.90;;;4.30;;
23123;SDS011;11731;48.592;8.858;2023-06-05T09:05:40;6.80;;;4.13;;
23123;SDS011;11731;48.592;8.858;2023-06-05T09:08:08;4.70;;;4.20;;
23123;SDS011;11731;48.592;8.858;2023-06-05T09:10:35;5.20;;;4.20;;
23123;SDS011;11731;48.592;8.858;2023-06-05T09:13:03;7.27;;;4.37;;
23123;SDS011;11731;48.592;8.858;2023-06-05T09:15:30;5.57;;;4.17;;
23123;SDS011;11731;48.592;8.858;2023-06-05T09:18:03;5.47;;;3.70;;
23123;SDS011;11731;48.592;8.858;2023-06-05T09:20:33;6.90;;;4.30;;
23123;SDS011;11731;48.592;8.858;2023-06-05T09:23:04;4.97;;;4.47;;
23123;SDS011;11731;48.592;8.858;2023-06-05T09:25:49;4.63;;;4.00;;
23123;SDS011;11731;48.592;8.858;2023-06-05T09:28:17;5.67;;;4.43;;
23123;SDS011;11731;48.592;8.858;2023-06-05T09:30:54;7.50;;;4.80;;
23123;SDS011;11731;48.592;8.858;2023-06-05T09:33:25;6.50;;;4.80;;
23123;SDS011;11731;48.592;8.858;2023-06-05T09:36:01;7.57;;;4.93;;
23123;SDS011;11731;48.592;8.858;2023-06-05T09:38:31;6.97;;;5.13;;
23123;SDS011;11731;48.592;8.858;2023-06-05T09:41:02;6.73;;;4.97;;
23123;SDS011;11731;48.592;8.858;2023-06-05T09:43:33;5.67;;;4.70;;
23123;SDS011;11731;48.592;8.858;2023-06-05T09:46:07;6.90;;;5.10;;
23123;SDS011;11731;48.592;8.858;2023-06-05T09:48:35;5.33;;;4.50;;
23123;SDS011;11731;48.592;8.858;2023-06-05T09:51:08;6.97;;;5.37;;
23123;SDS011;11731;48.592;8.858;2023-06-05T09:53:41;8.00;;;4.77;;
23123;SDS011;11731;48.592;8.858;2023-06-05T09:56:10;6.03;;;5.03;;
23123;SDS011;11731;48.592;8.858;2023-06-05T09:58:38;4.73;;;4.30;;
23123;SDS011;11731;48.592;8.858;2023-06-05T10:01:09;6.10;;;4.60;;
23123;SDS011;11731;48.592;8.858;2023-06-05T10:03:38;6.97;;;4.60;;
23123;SDS011;11731;48.592;8.858;2023-06-05T10:06:08;6.20;;;4.33;;
23123;SDS011;11731;48.592;8.858;2023-06-05T10:08:59;7.47;;;4.77;;
23123;SDS011;11731;48.592;8.858;2023-06-05T10:11:27;6.37;;;4.40;;
23123;SDS011;11731;48.592;8.858;2023-06-05T10:13:54;6.47;;;4.57;;
23123;SDS011;11731;48.592;8.858;2023-06-05T10:16:25;6.47;;;4.60;;
23123;SDS011;11731;48.592;8.858;2023-06-05T10:18:54;7.37;;;4.30;;
23123;SDS011;11731;48.592;8.858;2023-06-05T10:21:22;7.63;;;4.87;;
23123;SDS011;11731;48.592;8.858;2023-06-05T10:23:51;6.10;;;4.30;;
23123;SDS011;11731;48.592;8.858;2023-06-05T10:26:25;5.63;;;4.03;;
23123;SDS011;11731;48.592;8.858;2023-06-05T10:29:26;6.97;;;4.70;;
23123;SDS011;11731;48.592;8.858;2023-06-05T10:32:03;5.87;;;5.23;;
23123;SDS011;11731;48.592;8.858;2023-06-05T10:34:36;4.97;;;4.47;;
23123;SDS011;11731;48.592;8.858;2023-06-05T10:37:18;7.70;;;4.27;;
23123;SDS011;11731;48.592;8.858;2023-06-05T10:40:02;6.03;;;4.30;;
23123;SDS011;11731;48.592;8.858;2023-06-05T10:42:32;5.43;;;4.53;;
23123;SDS011;11731;48.592;8.858;2023-06-05T10:47:57;6.77;;;5.10;;
23123;SDS011;11731;48.592;8.858;2023-06-05T10:50:26;4.67;;;4.27;;
23123;SDS011;11731;48.592;8.858;2023-06-05T10:52:56;6.20;;;4.40;;
23123;SDS011;11731;48.592;8.858;2023-06-05T10:55:25;5.97;;;4.30;;
23123;SDS011;11731;48.592;8.858;2023-06-05T11:03:55;4.90;;;4.07;;
23123;SDS011;11731;48.592;8.858;2023-06-05T11:06:23;5.87;;;4.60;;
23123;SDS011;11731;48.592;8.858;2023-06-05T11:11:56;6.73;;;5.03;;
23123;SDS011;11731;48.592;8.858;2023-06-05T11:14:40;4.93;;;4.10;;
23123;SDS011;11731;48.592;8.858;2023-06-05T11:17:31;6.63;;;4.17;;
23123;SDS011;11731;48.592;8.858;2023-06-05T11:20:00;5.10;;;4.60;;
23123;SDS011;11731;48.592;8.858;2023-06-05T11:25:27;7.03;;;4.13;;
23123;SDS011;11731;48.592;8.858;2023-06-05T11:27:56;6.83;;;4.47;;
23123;SDS011;11731;48.592;8.858;2023-06-05T11:30:38;5.23;;;4.67;;
23123;SDS011;11731;48.592;8.858;2023-06-05T11:33:09;5.37;;;4.50;;
23123;SDS011;11731;48.592;8.858;2023-06-05T11:36:47;5.50;;;4.67;;
23123;SDS011;11731;48.592;8.858;2023-06-05T11:39:02;5.07;;;4.33;;
23123;SDS011;11731;48.592;8.858;2023-06-05T11:41:29;6.50;;;4.33;;
23123;SDS011;11731;48.592;8.858;2023-06-05T11:43:56;4.60;;;4.17;;
23123;SDS011;11731;48.592;8.858;2023-06-05T11:49:40;6.90;;;5.73;;
23123;SDS011;11731;48.592;8.858;2023-06-05T11:52:07;7.33;;;4.90;;
23123;SDS011;11731;48.592;8.858;2023-06-05T11:54:46;7.43;;;5.07;;
23123;SDS011;11731;48.592;8.858;2023-06-05T12:00:09;7.97;;;4.57;;
23123;SDS011;11731;48.592;8.858;2023-06-05T12:02:36;7.70;;;4.70;;
23123;SDS011;11731;48.592;8.858;2023-06-05T12:05:06;6.90;;;4.83;;
23123;SDS011;11731;48.592;8.858;2023-06-05T12:07:33;6.87;;;5.30;;
23123;SDS011;11731;48.592;8.858;2023-06-05T12:10:02;5.83;;;4.87;;
23123;SDS011;11731;48.592;8.858;2023-06-05T12:15:35;4.70;;;3.80;;
23123;SDS011;11731;48.592;8.858;2023-06-05T12:18:02;5.03;;;3.90;;
23123;SDS011;11731;48.592;8.858;2023-06-05T12:20:38;10.30;;;4.63;;
23123;SDS011;11731;48.592;8.858;2023-06-05T12:23:47;8.93;;;3.90;;
23123;SDS011;11731;48.592;8.858;2023-06-05T12:26:10;4.93;;;4.33;;
23123;SDS011;11731;48.592;8.858;2023-06-05T12:28:37;5.67;;;4.23;;
23123;SDS011;11731;48.592;8.858;2023-06-05T12:31:04;8.80;;;3.93;;
23123;SDS011;11731;48.592;8.858;2023-06-05T12:33:31;5.30;;;3.93;;
23123;SDS011;11731;48.592;8.858;2023-06-05T12:36:06;4.53;;;4.13;;
23123;SDS011;11731;48.592;8.858;2023-06-05T12:38:37;4.73;;;3.97;;
23123;SDS011;11731;48.592;8.858;2023-06-05T12:41:05;6.57;;;3.90;;
23123;SDS011;11731;48.592;8.858;2023-06-05T12:43:32;4.60;;;3.87;;
23123;SDS011;11731;48.592;8.858;2023-06-05T12:45:59;4.57;;;3.70;;
23123;SDS011;11731;48.592;8.858;2023-06-05T12:48:26;3.70;;;3.23;;
23123;SDS011;11731;48.592;8.858;2023-06-05T12:50:53;5.27;;;3.77;;
23123;SDS011;11731;48.592;8.858;2023-06-05T12:53:22;5.03;;;3.83;;
23123;SDS011;11731;48.592;8.858;2023-06-05T12:55:50;5.63;;;3.50;;
23123;SDS011;11731;48.592;8.858;2023-06-05T12:58:17;12.73;;;4.80;;
23123;SDS011;11731;48.592;8.858;2023-06-05T13:00:44;10.20;;;4.87;;
23123;SDS011;11731;48.592;8.858;2023-06-05T13:03:11;5.50;;;3.83;;
23123;SDS011;11731;48.592;8.858;2023-06-05T13:05:39;5.50;;;3.90;;
23123;SDS011;11731;48.592;8.858;2023-06-05T13:08:12;3.90;;;3.60;;
23123;SDS011;11731;48.592;8.858;2023-06-05T13:10:54;8.50;;;3.63;;
23123;SDS011;11731;48.592;8.858;2023-06-05T13:13:21;4.13;;;3.70;;
23123;SDS011;11731;48.592;8.858;2023-06-05T13:15:48;5.07;;;3.60;;
23123;SDS011;11731;48.592;8.858;2023-06-05T13:18:15;4.27;;;3.73;;
23123;SDS011;11731;48.592;8.858;2023-06-05T13:20:42;7.00;;;3.77;;
23123;SDS011;11731;48.592;8.858;2023-06-05T13:23:09;5.33;;;3.40;;
23123;SDS011;11731;48.592;8.858;2023-06-05T13:25:36;3.90;;;3.53;;
23123;SDS011;11731;48.592;8.858;2023-06-05T13:31:10;4.57;;;3.50;;
23123;SDS011;11731;48.592;8.858;2023-06-05T13:33:38;4.83;;;3.33;;
23123;SDS011;11731;48.592;8.858;2023-06-05T13:36:06;5.37;;;3.40;;
23123;SDS011;11731;48.592;8.858;2023-06-05T13:38:33;4.10;;;3.37;;
23123;SDS011;11731;48.592;8.858;2023-06-05T13:41:02;4.13;;;3.70;;
23123;SDS011;11731;48.592;8.858;2023-06-05T13:43:29;5.77;;;3.40;;
23123;SDS011;11731;48.592;8.858;2023-06-05T13:45:57;5.43;;;3.50;;
23123;SDS011;11731;48.592;8.858;2023-06-05T13:48:25;4.20;;;3.80;;
23123;SDS011;11731;48.592;8.858;2023-06-05T13:50:52;3.53;;;3.20;;
23123;SDS011;11731;48.592;8.858;2023-06-05T13:53:22;8.77;;;3.70;;
23123;SDS011;11731;48.592;8.858;2023-06-05T13:55:49;6.73;;;3.43;;
23123;SDS011;11731;48.592;8.858;2023-06-05T13:58:16;6.53;;;3.27;;
23123;SDS011;11731;48.592;8.858;2023-06-05T14:00:43;4.60;;;3.30;;
23123;SDS011;11731;48.592;8.858;2023-06-05T14:03:10;4.30;;;3.30;;
23123;SDS011;11731;48.592;8.858;2023-06-05T14:08:29;4.80;;;3.10;;
23123;SDS011;11731;48.592;8.858;2023-06-05T14:10:58;3.97;;;3.57;;
23123;SDS011;11731;48.592;8.858;2023-06-05T14:13:25;5.23;;;3.40;;
23123;SDS011;11731;48.592;8.858;2023-06-05T14:19:18;7.77;;;3.60;;
23123;SDS011;11731;48.592;8.858;2023-06-05T14:21:47;4.83;;;3.47;;
23123;SDS011;11731;48.592;8.858;2023-06-05T14:24:54;3.63;;;3.33;;
23123;SDS011;11731;48.592;8.858;2023-06-05T14:27:14;3.80;;;3.20;;
23123;SDS011;11731;48.592;8.858;2023-06-05T14:29:50;5.07;;;3.50;;
23123;SDS011;11731;48.592;8.858;2023-06-05T14:32:17;3.87;;;3.47;;
23123;SDS011;11731;48.592;8.858;2023-06-05T14:34:43;3.90;;;3.30;;
23123;SDS011;11731;48.592;8.858;2023-06-05T14:37:18;3.70;;;3.40;;
23123;SDS011;11731;48.592;8.858;2023-06-05T14:39:45;14.73;;;4.03;;
23123;SDS011;11731;48.592;8.858;2023-06-05T14:42:11;4.33;;;3.63;;
23123;SDS011;11731;48.592;8.858;2023-06-05T14:44:38;6.83;;;4.13;;
23123;SDS011;11731;48.592;8.858;2023-06-05T14:47:06;4.77;;;3.43;;
23123;SDS011;11731;48.592;8.858;2023-06-05T14:49:33;7.87;;;4.47;;
23123;SDS011;11731;48.592;8.858;2023-06-05T14:51:59;8.23;;;3.70;;
23123;SDS011;11731;48.592;8.858;2023-06-05T14:54:28;4.83;;;3.27;;
23123;SDS011;11731;48.592;8.858;2023-06-05T14:56:55;5.37;;;3.93;;
23123;SDS011;11731;48.592;8.858;2023-06-05T14:59:21;6.33;;;3.80;;
23123;SDS011;11731;48.592;8.858;2023-06-05T15:01:48;4.93;;;4.20;;
23123;SDS011;11731;48.592;8.858;2023-06-05T15:04:15;4.37;;;3.67;;
23123;SDS011;11731;48.592;8.858;2023-06-05T15:06:42;4.23;;;3.50;;
23123;SDS011;11731;48.592;8.858;2023-06-05T15:12:14;7.77;;;3.63;;
23123;SDS011;11731;48.592;8.858;2023-06-05T15:14:41;4.57;;;3.80;;
23123;SDS011;11731;48.592;8.858;2023-06-05T15:17:23;4.67;;;4.03;;
23123;SDS011;11731;48.592;8.858;2023-06-05T15:25:31;5.63;;;4.00;;
23123;SDS011;11731;48.592;8.858;2023-06-05T15:26:54;4.13;;;3.60;;
23123;SDS011;11731;48.592;8.858;2023-06-05T15:29:20;4.27;;;3.67;;
23123;SDS011;11731;48.592;8.858;2023-06-05T15:35:10;4.87;;;3.40;;
23123;SDS011;11731;48.592;8.858;2023-06-05T15:37:37;6.50;;;3.70;;
23123;SDS011;11731;48.592;8.858;2023-06-05T15:40:17;4.17;;;3.27;;
23123;SDS011;11731;48.592;8.858;2023-06-05T15:42:45;6.20;;;4.03;;
23123;SDS011;11731;48.592;8.858;2023-06-05T15:45:47;6.07;;;3.53;;
23123;SDS011;11731;48.592;8.858;2023-06-05T15:51:26;8.40;;;3.80;;
23123;SDS011;11731;48.592;8.858;2023-06-05T15:53:53;6.33;;;3.63;;
23123;SDS011;11731;48.592;8.858;2023-06-05T15:56:36;5.00;;;3.77;;
23123;SDS011;11731;48.592;8.858;2023-06-05T15:59:04;4.70;;;3.73;;
23123;SDS011;11731;48.592;8.858;2023-06-05T16:01:31;6.03;;;3.77;;